createdAt,value
2019-03-12T00:01:03.017Z,101328.97
2019-03-12T00:03:32.788Z,101321.99
2019-03-12T00:06:02.331Z,101323.08
2019-03-12T00:08:31.868Z,101324.70
2019-03-12T00:11:01.382Z,101321.29
2019-03-12T00:13:31.080Z,101318.70
2019-03-12T00:16:00.806Z,101316.55
2019-03-12T00:18:30.456Z,101323.97
2019-03-12T00:21:00.011Z,101319.59
2019-03-12T00:23:30.119Z,101317.31
2019-03-12T00:25:59.671Z,101318.95
2019-03-12T00:28:29.252Z,101322.33
2019-03-12T00:30:58.948Z,101323.48
2019-03-12T00:33:28.942Z,101324.62
2019-03-12T00:35:58.534Z,101325.03
2019-03-12T00:38:28.425Z,101318.94
2019-03-12T00:41:00.292Z,101321.55
2019-03-12T00:43:29.931Z,101318.81
2019-03-12T00:45:59.593Z,101316.07
2019-03-12T00:48:29.635Z,101314.16
2019-03-12T00:50:59.266Z,101318.93
2019-03-12T00:53:29.023Z,101318.02
2019-03-12T00:55:58.637Z,101310.69
2019-03-12T00:58:28.510Z,101319.36
2019-03-12T01:00:58.533Z,101316.86
2019-03-12T01:03:29.102Z,101309.61
2019-03-12T01:05:58.715Z,101312.14
2019-03-12T01:08:28.502Z,101310.47
2019-03-12T01:10:58.490Z,101303.91
2019-03-12T01:13:28.338Z,101312.50
2019-03-12T01:15:58.240Z,101306.96
2019-03-12T01:18:28.375Z,101308.53
2019-03-12T01:20:58.320Z,101308.83
2019-03-12T01:23:28.291Z,101314.00
2019-03-12T01:25:58.350Z,101320.50
2019-03-12T01:28:28.175Z,101318.97
2019-03-12T01:30:58.035Z,101314.50
2019-03-12T01:33:27.927Z,101312.45
2019-03-12T01:35:57.436Z,101313.09
2019-03-12T01:38:27.064Z,101319.00
2019-03-12T01:40:56.935Z,101316.35
2019-03-12T01:43:26.512Z,101318.44
2019-03-12T01:45:56.433Z,101312.66
2019-03-12T01:48:26.319Z,101318.31
2019-03-12T01:50:56.543Z,101323.59
2019-03-12T01:53:26.412Z,101331.92
2019-03-12T01:55:56.355Z,101326.29
2019-03-12T01:58:26.256Z,101327.98
2019-03-12T02:00:56.167Z,101316.38
2019-03-12T02:03:26.076Z,101310.34
2019-03-12T02:05:56.184Z,101313.61
2019-03-12T02:08:26.017Z,101313.84
2019-03-12T02:10:55.615Z,101310.52
2019-03-12T02:13:25.494Z,101307.80
2019-03-12T02:15:55.504Z,101309.09
2019-03-12T02:18:25.130Z,101312.14
2019-03-12T02:20:55.071Z,101311.63
2019-03-12T02:23:24.845Z,101310.65
2019-03-12T02:25:54.413Z,101297.98
2019-03-12T02:28:24.014Z,101296.66
2019-03-12T02:30:53.604Z,101302.88
2019-03-12T02:33:23.527Z,101298.06
2019-03-12T02:35:53.101Z,101308.06
2019-03-12T02:38:22.635Z,101303.05
2019-03-12T02:40:54.444Z,101296.07
2019-03-12T02:43:24.020Z,101294.05
2019-03-12T02:45:53.884Z,101299.48
2019-03-12T02:48:23.553Z,101302.63
2019-03-12T02:50:53.653Z,101292.62
2019-03-12T02:53:23.463Z,101292.28
2019-03-12T02:55:53.121Z,101297.45
2019-03-12T02:58:22.670Z,101299.92
2019-03-12T03:00:52.187Z,101294.41
2019-03-12T03:03:21.760Z,101286.47
2019-03-12T03:06:08.643Z,101285.42
2019-03-12T03:08:38.717Z,101287.64
2019-03-12T03:11:08.339Z,101290.31
2019-03-12T03:13:37.930Z,101282.93
2019-03-12T03:16:08.349Z,101282.62
2019-03-12T03:18:37.970Z,101287.20
2019-03-12T03:21:08.200Z,101287.20
2019-03-12T03:23:38.185Z,101290.91
2019-03-12T03:26:07.765Z,101288.53
2019-03-12T03:28:37.403Z,101291.06
2019-03-12T03:31:07.124Z,101295.12
2019-03-12T03:33:36.605Z,101296.77
2019-03-12T03:36:06.363Z,101303.97
2019-03-12T03:38:35.966Z,101302.19
2019-03-12T03:41:05.771Z,101304.03
2019-03-12T03:43:35.429Z,101305.97
2019-03-12T03:46:05.066Z,101300.31
2019-03-12T03:48:34.571Z,101298.96
2019-03-12T03:51:04.182Z,101292.73
2019-03-12T03:53:34.007Z,101298.58
2019-03-12T03:56:03.876Z,101297.59
2019-03-12T03:58:33.437Z,101297.53
2019-03-12T04:01:03.176Z,101302.64
2019-03-12T04:03:32.911Z,101300.12
2019-03-12T04:06:02.594Z,101303.66
2019-03-12T04:08:32.226Z,101296.00
2019-03-12T04:11:01.853Z,101296.00
2019-03-12T04:13:31.514Z,101291.79
2019-03-12T04:16:01.077Z,101297.75
2019-03-12T04:18:30.638Z,101295.66
2019-03-12T04:21:00.223Z,101288.38
2019-03-12T04:23:29.842Z,101286.22
2019-03-12T04:25:59.524Z,101287.58
2019-03-12T04:28:29.367Z,101281.67
2019-03-12T04:30:59.008Z,101279.48
2019-03-12T04:34:17.938Z,101273.03
2019-03-12T04:36:48.939Z,101279.48
2019-03-12T04:39:18.592Z,101270.75
2019-03-12T04:41:48.270Z,101274.10
2019-03-12T04:44:17.965Z,101262.69
2019-03-12T04:46:47.690Z,101260.69
2019-03-12T04:49:17.642Z,101256.87
2019-03-12T04:51:47.264Z,101260.20
2019-03-12T04:54:17.046Z,101254.56
2019-03-12T04:56:46.903Z,101256.63
2019-03-12T04:59:16.574Z,101246.59
2019-03-12T05:01:46.413Z,101248.44
2019-03-12T05:04:16.048Z,101253.02
2019-03-12T05:06:45.856Z,101249.33
2019-03-12T05:09:15.407Z,101251.45
2019-03-12T05:11:44.976Z,101249.70
2019-03-12T05:14:36.097Z,101247.13
2019-03-12T05:17:22.592Z,101243.24
2019-03-12T05:19:52.341Z,101243.70
2019-03-12T05:22:23.769Z,101243.70
2019-03-12T05:24:53.946Z,101243.05
2019-03-12T05:27:25.082Z,101245.70
2019-03-12T05:29:55.707Z,101249.02
2019-03-12T05:32:25.703Z,101251.91
2019-03-12T05:34:55.483Z,101241.84
2019-03-12T05:37:25.434Z,101241.58
2019-03-12T05:39:55.081Z,101236.59
2019-03-12T05:42:24.814Z,101237.73
2019-03-12T05:44:57.606Z,101242.50
2019-03-12T05:47:27.513Z,101233.86
2019-03-12T05:49:57.839Z,101241.58
2019-03-12T05:52:27.607Z,101245.11
2019-03-12T05:55:00.869Z,101248.83
2019-03-12T05:57:30.655Z,101249.97
2019-03-12T06:00:00.409Z,101255.83
2019-03-12T06:02:30.349Z,101254.19
2019-03-12T06:05:00.455Z,101266.31
2019-03-12T06:07:30.132Z,101275.42
2019-03-12T06:10:00.371Z,101273.55
2019-03-12T06:12:29.920Z,101265.26
2019-03-12T06:14:59.725Z,101251.64
2019-03-12T06:17:29.509Z,101249.51
2019-03-12T06:19:59.227Z,101133.28
2019-03-12T06:22:29.432Z,101253.65
2019-03-12T06:24:59.179Z,101236.59
2019-03-12T06:27:29.199Z,101241.16
2019-03-12T06:29:58.926Z,101243.55
2019-03-12T06:32:45.793Z,101246.05
2019-03-12T06:35:38.908Z,101243.75
2019-03-12T06:38:27.642Z,101233.66
2019-03-12T06:41:14.131Z,101232.30
2019-03-12T06:43:52.285Z,101235.62
2019-03-12T06:46:43.570Z,101234.12
2019-03-12T06:49:44.495Z,101232.05
2019-03-12T06:52:38.815Z,101227.43
2019-03-12T06:55:27.665Z,101217.59
2019-03-12T06:58:45.368Z,101219.60
2019-03-12T07:01:33.905Z,101211.27
2019-03-12T07:04:37.811Z,101216.13
2019-03-12T07:07:18.638Z,101224.13
2019-03-12T07:10:10.843Z,101214.22
2019-03-12T07:13:14.475Z,101216.00
2019-03-12T07:15:51.853Z,101201.75
2019-03-12T07:18:40.401Z,101208.31
2019-03-12T07:21:19.552Z,101202.63
2019-03-12T07:24:13.186Z,101206.41
2019-03-12T07:27:15.019Z,101202.28
2019-03-12T07:30:06.682Z,101197.31
2019-03-12T07:33:01.379Z,101201.09
2019-03-12T07:35:55.792Z,101195.55
2019-03-12T07:38:34.401Z,101198.25
2019-03-12T07:41:31.325Z,101198.50
2019-03-12T07:43:59.992Z,101193.19
2019-03-12T07:46:48.523Z,101193.89
2019-03-12T07:49:40.130Z,101183.03
2019-03-12T07:52:31.760Z,101173.34
2019-03-12T07:55:20.213Z,101178.21
2019-03-12T07:58:35.741Z,101178.73
2019-03-12T08:01:25.135Z,101171.20
2019-03-12T08:04:17.073Z,100564.52
2019-03-12T08:07:12.970Z,101164.80
2019-03-12T08:10:07.373Z,101166.30
2019-03-12T08:13:01.879Z,101161.66
2019-03-12T08:15:53.371Z,101152.89
2019-03-12T08:18:38.006Z,101152.39
2019-03-12T08:21:26.758Z,101009.07
2019-03-12T08:24:07.271Z,101151.52
2019-03-12T08:26:45.754Z,101151.56
2019-03-12T08:29:49.309Z,101145.40
2019-03-12T08:32:26.582Z,101140.64
2019-03-12T08:35:08.679Z,101149.59
2019-03-12T08:37:54.948Z,101148.52
2019-03-12T08:40:52.559Z,101141.84
2019-03-12T08:43:40.042Z,101137.23
2019-03-12T08:46:34.679Z,101136.31
2019-03-12T08:49:35.597Z,101137.65
2019-03-12T08:52:33.035Z,101122.47
2019-03-12T08:55:25.090Z,101118.81
2019-03-12T08:58:11.967Z,101120.59
2019-03-12T09:01:09.837Z,101122.58
2019-03-12T09:03:58.775Z,101124.29
2019-03-12T09:07:05.935Z,101115.61
2019-03-12T09:09:50.619Z,101110.96
2019-03-12T09:12:29.133Z,101104.94
2019-03-12T09:15:16.628Z,101097.78
2019-03-12T09:18:23.208Z,101100.38
2019-03-12T09:21:11.807Z,101098.70
2019-03-12T09:24:02.923Z,101073.83
2019-03-12T09:26:54.336Z,101096.95
2019-03-12T09:29:45.822Z,101091.76
2019-03-12T09:32:30.492Z,101083.67
2019-03-12T09:35:31.005Z,101083.58
2019-03-12T09:38:25.637Z,101076.27
2019-03-12T09:41:20.235Z,101069.17
2019-03-12T09:44:07.337Z,101064.23
2019-03-12T09:46:55.859Z,101059.47
2019-03-12T09:49:40.404Z,101053.98
2019-03-12T09:52:27.525Z,101049.16
2019-03-12T09:55:19.338Z,101051.52
2019-03-12T09:58:11.113Z,101049.42
2019-03-12T10:00:59.733Z,101041.65
2019-03-12T10:03:51.395Z,101024.98
2019-03-12T10:06:43.347Z,101019.91
2019-03-12T10:09:33.002Z,101010.26
2019-03-12T10:12:27.866Z,101008.21
2019-03-12T10:15:14.608Z,100988.46
2019-03-12T10:17:50.687Z,100991.84
2019-03-12T10:20:36.498Z,100602.05
2019-03-12T10:23:12.533Z,100962.81
2019-03-12T10:26:06.595Z,100968.70
2019-03-12T10:29:04.463Z,100968.52
2019-03-12T10:32:05.174Z,100960.34
2019-03-12T10:34:45.641Z,100955.45
2019-03-12T10:37:29.373Z,100949.50
2019-03-12T10:40:19.147Z,100957.52
2019-03-12T10:43:03.456Z,100946.95
2019-03-12T10:45:52.107Z,100942.50
2019-03-12T10:48:22.123Z,100940.13
2019-03-12T10:50:51.846Z,100940.13
2019-03-12T10:53:21.702Z,100939.42
2019-03-12T10:55:51.545Z,100934.31
2019-03-12T10:58:21.360Z,100937.92
2019-03-12T11:00:52.270Z,100930.74
2019-03-12T11:03:22.028Z,100931.70
2019-03-12T11:05:52.017Z,100923.35
2019-03-12T11:08:21.964Z,100926.86
2019-03-12T11:10:51.843Z,100930.23
2019-03-12T11:13:21.676Z,100925.94
2019-03-12T11:15:51.741Z,100916.33
2019-03-12T11:18:22.217Z,100916.33
2019-03-12T11:20:52.559Z,100914.70
2019-03-12T11:23:22.258Z,100903.56
2019-03-12T11:25:52.976Z,100893.31
2019-03-12T11:28:23.185Z,100900.95
2019-03-12T11:30:53.142Z,100896.55
2019-03-12T11:33:23.052Z,100893.88
2019-03-12T11:35:53.247Z,100888.57
2019-03-12T11:38:23.342Z,100880.03
2019-03-12T11:40:53.866Z,100872.50
2019-03-12T11:43:23.935Z,100872.50
2019-03-12T11:45:53.946Z,100852.92
2019-03-12T11:48:23.656Z,100857.87
2019-03-12T11:50:53.444Z,100854.36
2019-03-12T11:53:23.173Z,100847.45
2019-03-12T11:55:52.803Z,100831.06
2019-03-12T11:58:22.507Z,100838.16
2019-03-12T12:01:17.159Z,100830.29
2019-03-12T12:03:46.942Z,100827.75
2019-03-12T12:06:16.510Z,100826.94
2019-03-12T12:08:46.493Z,100826.94
2019-03-12T12:11:16.200Z,100806.09
2019-03-12T12:13:45.871Z,100808.05
2019-03-12T12:16:16.076Z,100785.68
2019-03-12T12:18:45.839Z,100785.68
2019-03-12T12:21:15.721Z,100781.05
2019-03-12T12:23:45.494Z,100760.52
2019-03-12T12:26:15.189Z,100756.81
2019-03-12T12:28:45.049Z,100756.81
2019-03-12T12:31:15.663Z,100629.66
2019-03-12T12:33:45.336Z,100742.05
2019-03-12T12:36:14.922Z,100736.19
2019-03-12T12:38:45.478Z,100711.66
2019-03-12T12:41:15.098Z,100711.66
2019-03-12T12:43:44.656Z,100713.89
2019-03-12T12:46:14.525Z,100704.73
2019-03-12T12:48:44.272Z,100700.78
2019-03-12T12:51:13.968Z,100681.63
2019-03-12T12:53:43.911Z,100681.63
2019-03-12T12:56:13.637Z,100677.30
2019-03-12T12:58:43.589Z,100669.62
2019-03-12T13:01:13.959Z,100657.72
2019-03-12T13:03:43.720Z,100657.72
2019-03-12T13:06:13.475Z,100651.78
2019-03-12T13:08:43.406Z,100643.20
2019-03-12T13:11:13.109Z,100643.20
2019-03-12T13:13:42.779Z,100629.79
2019-03-12T13:16:24.523Z,100615.22
2019-03-12T13:18:43.718Z,100616.95
2019-03-12T13:21:13.302Z,100616.95
2019-03-12T13:23:42.965Z,100598.36
2019-03-12T13:26:12.738Z,100598.36
2019-03-12T13:28:44.862Z,100590.94
2019-03-12T13:31:13.605Z,100585.44
2019-03-12T13:33:43.429Z,100577.15
2019-03-12T13:36:18.431Z,100577.15
2019-03-12T13:38:48.950Z,100563.72
2019-03-12T13:41:18.820Z,100563.80
2019-03-12T13:43:48.434Z,100559.52
2019-03-12T13:46:18.066Z,100544.86
2019-03-12T13:48:48.028Z,100544.86
2019-03-12T13:51:17.803Z,100557.50
2019-03-12T13:53:47.418Z,100551.81
2019-03-12T13:56:17.013Z,100538.30
2019-03-12T13:58:46.654Z,100536.94
2019-03-12T14:01:16.196Z,100534.29
2019-03-12T14:03:45.830Z,100512.90
2019-03-12T14:06:15.585Z,100512.90
2019-03-12T14:08:45.290Z,100506.75
2019-03-12T14:11:14.889Z,100483.63
2019-03-12T14:13:44.513Z,100473.58
2019-03-12T14:16:14.279Z,100467.94
2019-03-12T14:18:43.915Z,100467.94
2019-03-12T14:21:15.685Z,100441.83
2019-03-12T14:24:01.174Z,100432.16
2019-03-12T14:26:31.431Z,100432.16
2019-03-12T14:29:01.203Z,100425.29
2019-03-12T14:31:30.954Z,100419.27
2019-03-12T14:34:01.004Z,100407.02
2019-03-12T14:36:30.813Z,100393.97
2019-03-12T14:39:00.746Z,100251.10
2019-03-12T14:41:33.465Z,100366.50
2019-03-12T14:44:03.318Z,100373.02
2019-03-12T14:46:32.933Z,100356.58
2019-03-12T14:49:04.737Z,100346.04
2019-03-12T14:52:07.520Z,100346.04
2019-03-12T14:54:37.257Z,100339.09
2019-03-12T14:57:06.953Z,100332.50
2019-03-12T14:59:36.918Z,100320.23
2019-03-12T15:02:06.623Z,100320.23
2019-03-12T15:04:36.337Z,100316.31
2019-03-12T15:07:06.547Z,100301.55
2019-03-12T15:09:36.412Z,100296.26
2019-03-12T15:12:06.559Z,100279.20
2019-03-12T15:14:36.255Z,100279.20
2019-03-12T15:17:05.905Z,100256.15
2019-03-12T15:19:35.552Z,100256.15
2019-03-12T15:22:05.213Z,100241.34
2019-03-12T15:24:36.295Z,100241.34
2019-03-12T15:27:06.221Z,100234.79
2019-03-12T15:29:36.023Z,100227.33
2019-03-12T15:32:05.604Z,100214.22
2019-03-12T15:34:35.297Z,100210.27
2019-03-12T15:37:04.961Z,100210.27
2019-03-12T15:39:34.704Z,100202.97
2019-03-12T15:42:04.598Z,100200.30
2019-03-12T15:44:34.360Z,100191.95
2019-03-12T15:47:04.131Z,100168.03
2019-03-12T15:49:33.789Z,100151.94
2019-03-12T15:52:03.474Z,100151.94
2019-03-12T15:54:33.732Z,100164.48
2019-03-12T15:57:03.487Z,100141.45
2019-03-12T15:59:33.099Z,100141.45
2019-03-12T16:02:02.777Z,100146.66
2019-03-12T16:04:32.313Z,100130.98
2019-03-12T16:07:02.039Z,100122.71
2019-03-12T16:09:31.878Z,100124.86
2019-03-12T16:12:01.521Z,100107.95
2019-03-12T16:14:31.387Z,100094.89
2019-03-12T16:17:01.029Z,100093.56
2019-03-12T16:19:30.639Z,100071.41
2019-03-12T16:22:00.320Z,100071.41
2019-03-12T16:24:30.022Z,100077.95
2019-03-12T16:27:03.277Z,100060.50
2019-03-12T16:29:33.715Z,100065.19
2019-03-12T16:32:03.817Z,100054.73
2019-03-12T16:34:33.567Z,100082.58
2019-03-12T16:37:03.128Z,100040.05
2019-03-12T16:39:32.942Z,100040.05
2019-03-12T16:42:02.604Z,100026.18
2019-03-12T16:44:32.886Z,100026.18
2019-03-12T16:47:02.585Z,100024.81
2019-03-12T16:49:32.298Z,100018.34
2019-03-12T16:52:01.916Z,100007.09
2019-03-12T16:54:31.441Z,100012.73
2019-03-12T16:57:01.331Z,99983.59
2019-03-12T16:59:30.917Z,99983.59
2019-03-12T17:02:00.862Z,99981.38
2019-03-12T17:04:30.530Z,99981.38
2019-03-12T17:07:00.206Z,99974.42
2019-03-12T17:09:33.306Z,99965.70
2019-03-12T17:12:06.602Z,99955.73
2019-03-12T17:14:39.012Z,99967.00
2019-03-12T17:17:08.626Z,99951.38
2019-03-12T17:19:38.260Z,99927.06
2019-03-12T17:22:07.929Z,99938.35
2019-03-12T17:24:37.560Z,99927.52
2019-03-12T17:27:07.653Z,99925.34
2019-03-12T17:29:37.467Z,99913.16
2019-03-12T17:32:07.321Z,99907.50
2019-03-12T17:34:36.920Z,99907.93
2019-03-12T17:37:06.462Z,99894.91
2019-03-12T17:39:36.062Z,99890.55
2019-03-12T17:42:05.776Z,99891.86
2019-03-12T17:44:35.876Z,99880.59
2019-03-12T17:47:05.686Z,99876.70
2019-03-12T17:49:35.426Z,99862.38
2019-03-12T17:52:05.171Z,99852.39
2019-03-12T17:54:34.823Z,99852.39
2019-03-12T17:57:04.640Z,99858.02
2019-03-12T17:59:34.577Z,99845.44
2019-03-12T18:02:04.559Z,99847.14
2019-03-12T18:04:34.325Z,99847.56
2019-03-12T18:07:04.227Z,99836.30
2019-03-12T18:09:35.265Z,99828.53
2019-03-12T18:12:06.134Z,99825.48
2019-03-12T18:14:35.802Z,99825.48
2019-03-12T18:17:05.436Z,99820.27
2019-03-12T18:19:35.229Z,99824.63
2019-03-12T18:22:04.951Z,99811.59
2019-03-12T18:24:36.179Z,99804.20
2019-03-12T18:27:06.151Z,99786.38
2019-03-12T18:29:35.887Z,99788.98
2019-03-12T18:32:05.658Z,99782.88
2019-03-12T18:34:35.357Z,99774.20
2019-03-12T18:37:05.112Z,99769.84
2019-03-12T18:39:34.959Z,99761.16
2019-03-12T18:42:04.769Z,99752.93
2019-03-12T18:44:34.377Z,99748.57
2019-03-12T18:47:04.756Z,99740.36
2019-03-12T18:49:35.103Z,99735.17
2019-03-12T18:52:05.135Z,99736.91
2019-03-12T18:54:34.816Z,99708.29
2019-03-12T18:57:04.643Z,99715.23
2019-03-12T18:59:34.286Z,99704.81
2019-03-12T19:02:04.137Z,99701.34
2019-03-12T19:04:33.747Z,99702.23
2019-03-12T19:07:03.567Z,99707.44
2019-03-12T19:09:33.501Z,99701.36
2019-03-12T19:12:04.280Z,99687.48
2019-03-12T19:14:33.947Z,99665.33
2019-03-12T19:17:03.868Z,99668.38
2019-03-12T19:19:33.569Z,99664.48
2019-03-12T19:22:04.658Z,99658.81
2019-03-12T19:24:34.324Z,99647.95
2019-03-12T19:27:05.355Z,99646.25
2019-03-12T19:29:35.050Z,99644.95
2019-03-12T19:32:29.698Z,99641.45
2019-03-12T19:34:59.518Z,99638.88
2019-03-12T19:37:32.768Z,99621.50
2019-03-12T19:40:02.679Z,99605.89
2019-03-12T19:42:32.699Z,99605.89
2019-03-12T19:45:03.025Z,99607.20
2019-03-12T19:47:33.164Z,99608.48
2019-03-12T19:50:02.865Z,99591.11
2019-03-12T19:52:32.463Z,99584.17
2019-03-12T19:55:02.442Z,99587.66
2019-03-12T19:57:32.272Z,99453.91
2019-03-12T20:00:01.971Z,99585.92
2019-03-12T20:02:32.862Z,99564.23
2019-03-12T20:05:02.544Z,99552.92
2019-03-12T20:07:32.419Z,99545.56
2019-03-12T20:10:28.922Z,99542.08
2019-03-12T20:13:34.223Z,99539.06
2019-03-12T20:16:41.937Z,99526.05
2019-03-12T20:20:06.891Z,99516.05
2019-03-12T20:23:12.218Z,99520.84
2019-03-12T20:26:30.955Z,99520.83
2019-03-12T20:29:36.647Z,99515.60
2019-03-12T20:32:48.331Z,99497.81
2019-03-12T20:36:03.318Z,99494.78
2019-03-12T20:39:11.283Z,99475.70
2019-03-12T20:42:20.907Z,99462.23
2019-03-12T20:45:26.096Z,99461.80
2019-03-12T20:48:31.308Z,99457.91
2019-03-12T20:51:46.706Z,99448.36
2019-03-12T20:54:57.653Z,99442.28
2019-03-12T20:58:11.216Z,99420.59
2019-03-12T21:01:05.183Z,99425.39
2019-03-12T21:04:10.416Z,99408.88
2019-03-12T21:07:29.866Z,99404.98
2019-03-12T21:10:55.639Z,99397.63
2019-03-12T21:14:17.614Z,99384.61
2019-03-12T21:17:25.516Z,99382.44
2019-03-12T21:20:40.693Z,99370.27
2019-03-12T21:23:28.292Z,99374.62
2019-03-12T21:26:35.958Z,99364.64
2019-03-12T21:29:53.485Z,99362.48
2019-03-12T21:32:23.264Z,99357.72
2019-03-12T21:34:52.959Z,99345.56
2019-03-12T21:37:22.740Z,99337.77
2019-03-12T21:39:55.676Z,99328.23
2019-03-12T21:42:25.564Z,99336.91
2019-03-12T21:44:55.611Z,99326.50
2019-03-12T21:47:25.650Z,99330.39
2019-03-12T21:49:57.982Z,99314.79
2019-03-12T21:52:28.038Z,99315.23
2019-03-12T21:54:58.109Z,99307.01
2019-03-12T21:57:28.007Z,99308.74
2019-03-12T21:59:57.971Z,99290.98
2019-03-12T22:02:28.006Z,99291.81
2019-03-12T22:04:57.849Z,99281.88
2019-03-12T22:07:27.671Z,99270.59
2019-03-12T22:09:57.475Z,99264.09
2019-03-12T22:12:27.408Z,99278.84
2019-03-12T22:14:57.400Z,99270.16
2019-03-12T22:17:27.216Z,99264.95
2019-03-12T22:19:57.031Z,99248.92
2019-03-12T22:22:40.259Z,99250.67
2019-03-12T22:25:11.578Z,99245.03
2019-03-12T22:27:41.392Z,99232.91
2019-03-12T22:30:17.036Z,99229.45
2019-03-12T22:32:46.698Z,99213.41
2019-03-12T22:35:16.191Z,99210.38
2019-03-12T22:37:45.805Z,99211.25
2019-03-12T22:40:15.816Z,99200.86
2019-03-12T22:42:45.476Z,99196.09
2019-03-12T22:45:15.283Z,99188.28
2019-03-12T22:47:44.859Z,99180.07
2019-03-12T22:50:15.149Z,99058.84
2019-03-12T22:52:44.943Z,99180.92
2019-03-12T22:55:14.710Z,99173.58
2019-03-12T22:57:44.350Z,99163.61
2019-03-12T23:00:14.249Z,99153.66
2019-03-12T23:02:43.910Z,99151.05
2019-03-12T23:05:13.765Z,99139.37
2019-03-12T23:07:43.853Z,99146.30
2019-03-12T23:10:14.937Z,99126.36
2019-03-12T23:12:44.671Z,99127.67
2019-03-12T23:15:14.906Z,99122.02
2019-03-12T23:17:44.578Z,99119.44
2019-03-12T23:20:15.463Z,99113.39
2019-03-12T23:22:45.197Z,99104.73
2019-03-12T23:25:14.945Z,99117.28
2019-03-12T23:27:45.179Z,99102.98
2019-03-12T23:30:15.158Z,99089.55
2019-03-12T23:32:44.822Z,99077.86
2019-03-12T23:35:15.054Z,99075.27
2019-03-12T23:37:44.600Z,99065.73
2019-03-12T23:40:14.791Z,99057.93
2019-03-12T23:42:44.411Z,99054.03
2019-03-12T23:45:14.691Z,99053.18
2019-03-12T23:47:44.818Z,99047.98
2019-03-12T23:50:15.328Z,99039.74
2019-03-12T23:52:45.259Z,99038.89
2019-03-12T23:55:15.570Z,99031.09
2019-03-12T23:57:45.344Z,99028.49
